createdAt,value
2023-04-07T00:00:50.216Z,3.70
2023-04-07T00:03:17.564Z,3.40
2023-04-07T00:05:44.484Z,2.58
2023-04-07T00:08:11.271Z,2.55
2023-04-07T00:10:38.038Z,2.45
2023-04-07T00:13:04.799Z,2.72
2023-04-07T00:15:31.793Z,3.38
2023-04-07T00:17:58.717Z,2.20
2023-04-07T00:20:25.729Z,3.30
2023-04-07T00:22:52.488Z,2.58
2023-04-07T00:25:19.296Z,3.67
2023-04-07T00:27:46.391Z,2.65
2023-04-07T00:30:13.295Z,3.50
2023-04-07T00:32:40.341Z,3.17
2023-04-07T00:35:07.731Z,3.53
2023-04-07T00:37:34.601Z,2.83
2023-04-07T00:40:01.406Z,4.07
2023-04-07T00:42:28.219Z,3.78
2023-04-07T00:44:55.373Z,3.83
2023-04-07T00:47:22.263Z,3.33
2023-04-07T00:49:49.042Z,3.92
2023-04-07T00:52:16.549Z,3.88
2023-04-07T00:54:46.664Z,2.92
2023-04-07T00:57:13.583Z,3.85
2023-04-07T00:59:40.553Z,3.33
2023-04-07T01:02:34.073Z,3.95
2023-04-07T01:05:18.246Z,3.85
2023-04-07T01:08:02.240Z,3.58
2023-04-07T01:10:56.635Z,3.42
2023-04-07T01:13:33.348Z,4.20
2023-04-07T01:16:13.343Z,3.05
2023-04-07T01:18:50.833Z,4.05
2023-04-07T01:21:19.130Z,3.93
2023-04-07T01:24:05.418Z,2.70
2023-04-07T01:26:34.053Z,3.90
2023-04-07T01:29:06.956Z,4.22
2023-04-07T01:31:36.355Z,3.20
2023-04-07T01:34:04.164Z,4.18
2023-04-07T01:36:33.641Z,4.30
2023-04-07T01:39:01.057Z,3.55
2023-04-07T01:41:28.477Z,4.20
2023-04-07T01:43:57.524Z,3.25
2023-04-07T01:46:24.768Z,3.55
2023-04-07T01:48:52.557Z,3.30
2023-04-07T01:51:22.543Z,5.85
2023-04-07T01:53:50.307Z,4.05
2023-04-07T01:56:17.167Z,3.90
2023-04-07T01:58:48.672Z,3.10
2023-04-07T02:01:18.310Z,3.78
2023-04-07T02:04:12.670Z,3.35
2023-04-07T02:06:44.507Z,3.20
2023-04-07T02:09:15.360Z,3.92
2023-04-07T02:11:43.742Z,4.10
2023-04-07T02:14:12.021Z,5.07
2023-04-07T02:16:57.198Z,3.90
2023-04-07T02:19:24.848Z,4.18
2023-04-07T02:21:52.569Z,4.25
2023-04-07T02:24:21.838Z,3.85
2023-04-07T02:26:49.181Z,3.50
2023-04-07T02:29:16.370Z,3.75
2023-04-07T02:31:43.715Z,4.03
2023-04-07T02:34:11.028Z,4.05
2023-04-07T02:36:39.240Z,4.38
2023-04-07T02:39:07.259Z,4.63
2023-04-07T02:41:34.405Z,4.88
2023-04-07T02:44:01.124Z,5.55
2023-04-07T02:46:28.096Z,4.95
2023-04-07T02:48:55.006Z,6.30
2023-04-07T02:51:21.737Z,6.15
2023-04-07T02:53:48.488Z,5.22
2023-04-07T02:56:16.637Z,5.22
2023-04-07T02:58:43.406Z,6.57
2023-04-07T03:01:10.677Z,5.55
2023-04-07T03:03:37.702Z,4.57
2023-04-07T03:06:18.475Z,5.60
2023-04-07T03:09:01.020Z,4.93
2023-04-07T03:11:27.968Z,5.28
2023-04-07T03:13:56.971Z,5.97
2023-04-07T03:16:24.703Z,4.15
2023-04-07T03:19:03.003Z,4.20
2023-04-07T03:21:33.345Z,3.55
2023-04-07T03:24:00.359Z,4.13
2023-04-07T03:26:27.554Z,3.65
2023-04-07T03:28:55.371Z,4.57
2023-04-07T03:31:22.160Z,4.07
2023-04-07T03:33:51.585Z,4.03
2023-04-07T03:36:19.286Z,3.22
2023-04-07T03:38:47.744Z,3.85
2023-04-07T03:41:17.084Z,3.75
2023-04-07T03:43:44.164Z,3.83
2023-04-07T03:46:11.539Z,3.25
2023-04-07T03:48:38.409Z,5.05
2023-04-07T03:51:07.807Z,3.80
2023-04-07T03:53:35.582Z,4.97
2023-04-07T03:56:13.347Z,4.25
2023-04-07T03:58:59.153Z,5.30
2023-04-07T04:01:30.367Z,3.53
2023-04-07T04:04:03.319Z,4.05
2023-04-07T04:06:31.286Z,3.20
2023-04-07T04:09:06.014Z,3.90
2023-04-07T04:11:36.442Z,3.10
2023-04-07T04:14:05.119Z,3.10
2023-04-07T04:16:35.448Z,2.55
2023-04-07T04:19:07.147Z,2.63
2023-04-07T04:21:35.082Z,3.10
2023-04-07T04:24:03.327Z,3.28
2023-04-07T04:26:30.886Z,3.63
2023-04-07T04:29:04.076Z,2.25
2023-04-07T04:31:31.307Z,3.35
2023-04-07T04:33:59.147Z,3.42
2023-04-07T04:36:26.212Z,2.75
2023-04-07T04:38:57.617Z,3.22
2023-04-07T04:41:24.410Z,3.30
2023-04-07T04:43:52.035Z,3.55
2023-04-07T04:46:22.921Z,3.33
2023-04-07T04:48:51.522Z,3.38
2023-04-07T04:51:20.411Z,2.38
2023-04-07T04:53:52.584Z,4.10
2023-04-07T04:56:22.270Z,3.08
2023-04-07T04:58:50.377Z,3.60
2023-04-07T05:01:25.605Z,4.00
2023-04-07T05:04:00.079Z,3.80
2023-04-07T05:06:29.618Z,3.97
2023-04-07T05:09:00.998Z,3.08
2023-04-07T05:11:33.664Z,3.72
2023-04-07T05:14:00.382Z,2.83
2023-04-07T05:16:27.393Z,4.38
2023-04-07T05:18:54.957Z,3.95
2023-04-07T05:21:23.586Z,4.30
2023-04-07T05:23:53.490Z,3.13
2023-04-07T05:26:22.503Z,2.95
2023-04-07T05:28:50.798Z,3.53
2023-04-07T05:31:21.274Z,4.60
2023-04-07T05:33:51.649Z,4.47
2023-04-07T05:36:20.911Z,3.88
2023-04-07T05:38:47.675Z,3.97
2023-04-07T05:41:18.166Z,3.65
2023-04-07T05:43:44.938Z,3.63
2023-04-07T05:46:12.031Z,4.15
2023-04-07T05:48:47.361Z,3.03
2023-04-07T05:51:15.649Z,3.30
2023-04-07T05:53:42.318Z,2.78
2023-04-07T05:56:09.165Z,2.63
2023-04-07T05:58:45.308Z,3.25
2023-04-07T06:01:13.733Z,3.78
2023-04-07T06:03:41.065Z,3.60
2023-04-07T06:06:13.103Z,4.40
2023-04-07T06:08:39.986Z,3.95
2023-04-07T06:11:06.744Z,3.47
2023-04-07T06:13:34.358Z,3.85
2023-04-07T06:16:01.172Z,3.90
2023-04-07T06:18:27.851Z,2.78
2023-04-07T06:20:54.650Z,4.07
2023-04-07T06:23:22.496Z,3.70
2023-04-07T06:25:53.117Z,3.28
2023-04-07T06:28:20.744Z,4.43
2023-04-07T06:30:48.650Z,2.90
2023-04-07T06:33:16.357Z,2.80
2023-04-07T06:35:43.355Z,2.55
2023-04-07T06:38:11.547Z,2.15
2023-04-07T06:40:38.431Z,3.03
2023-04-07T06:43:06.112Z,3.33
2023-04-07T06:45:49.439Z,3.00
2023-04-07T06:48:16.459Z,4.07
2023-04-07T06:50:47.279Z,1.90
2023-04-07T06:53:14.021Z,2.28
2023-04-07T06:55:40.850Z,1.77
2023-04-07T06:58:07.907Z,2.78
2023-04-07T07:00:35.933Z,2.00
2023-04-07T07:03:02.932Z,2.58
2023-04-07T07:05:29.811Z,3.28
2023-04-07T07:07:56.638Z,4.22
2023-04-07T07:10:23.481Z,3.50
2023-04-07T07:12:51.239Z,4.78
2023-04-07T07:15:18.591Z,4.47
2023-04-07T07:17:45.427Z,3.70
2023-04-07T07:20:12.326Z,3.60
2023-04-07T07:22:39.130Z,3.63
2023-04-07T07:25:06.179Z,2.60
2023-04-07T07:27:32.868Z,2.65
2023-04-07T07:29:59.765Z,1.60
2023-04-07T07:32:26.665Z,2.15
2023-04-07T07:34:54.431Z,2.28
2023-04-07T07:37:21.242Z,1.75
2023-04-07T07:39:48.003Z,2.00
2023-04-07T07:42:14.742Z,1.73
2023-04-07T07:44:41.522Z,1.38
2023-04-07T07:47:08.360Z,1.45
2023-04-07T07:49:35.305Z,2.33
2023-04-07T07:52:02.519Z,1.60
2023-04-07T07:54:29.333Z,1.88
2023-04-07T07:56:56.215Z,1.55
2023-04-07T07:59:23.028Z,3.55
2023-04-07T08:01:49.744Z,2.25
2023-04-07T08:04:16.716Z,10.45
2023-04-07T08:06:43.547Z,1.83
2023-04-07T08:09:10.643Z,1.55
2023-04-07T08:11:37.304Z,1.60
2023-04-07T08:14:03.987Z,1.40
2023-04-07T08:16:31.208Z,1.33
2023-04-07T08:18:57.990Z,1.25
2023-04-07T08:21:24.704Z,1.17
2023-04-07T08:23:52.911Z,0.90
2023-04-07T08:26:19.892Z,1.05
2023-04-07T08:28:47.059Z,1.90
2023-04-07T08:31:13.797Z,1.00
2023-04-07T08:33:40.607Z,1.73
2023-04-07T08:36:07.539Z,1.58
2023-04-07T08:38:34.379Z,1.60
2023-04-07T08:41:10.078Z,1.60
2023-04-07T08:43:38.474Z,1.42
2023-04-07T08:46:05.857Z,2.03
2023-04-07T08:48:34.184Z,1.33
2023-04-07T08:51:10.014Z,1.90
2023-04-07T08:53:50.326Z,1.63
2023-04-07T08:56:18.392Z,1.00
2023-04-07T08:58:46.570Z,1.67
2023-04-07T09:01:14.271Z,2.60
2023-04-07T09:03:42.513Z,1.15
2023-04-07T09:06:11.251Z,2.60
2023-04-07T09:08:38.034Z,1.48
2023-04-07T09:11:04.981Z,1.17
2023-04-07T09:13:31.958Z,1.20
2023-04-07T09:16:01.790Z,1.20
2023-04-07T09:18:28.753Z,0.90
2023-04-07T09:20:59.056Z,1.33
2023-04-07T09:23:29.809Z,0.93
2023-04-07T09:25:59.200Z,1.48
2023-04-07T09:28:37.939Z,1.55
2023-04-07T09:31:04.692Z,1.80
2023-04-07T09:33:31.784Z,1.13
2023-04-07T09:35:58.534Z,1.08
2023-04-07T09:38:36.267Z,1.00
2023-04-07T09:41:21.509Z,1.25
2023-04-07T09:43:48.644Z,1.02
2023-04-07T09:46:17.950Z,1.85
2023-04-07T09:48:46.346Z,1.20
2023-04-07T09:51:15.717Z,1.33
2023-04-07T09:53:51.917Z,1.40
2023-04-07T09:56:22.296Z,1.30
2023-04-07T09:58:53.766Z,1.30
2023-04-07T10:01:22.318Z,1.30
2023-04-07T10:03:50.836Z,1.77
2023-04-07T10:06:17.938Z,1.30
2023-04-07T10:08:44.704Z,1.55
2023-04-07T10:11:11.546Z,2.13
2023-04-07T10:13:41.105Z,1.40
2023-04-07T10:16:08.877Z,2.35
2023-04-07T10:18:36.929Z,1.35
2023-04-07T10:21:06.678Z,1.42
2023-04-07T10:23:36.146Z,1.15
2023-04-07T10:26:05.068Z,1.17
2023-04-07T10:28:33.890Z,1.85
2023-04-07T10:31:01.952Z,1.33
2023-04-07T10:33:51.745Z,1.15
2023-04-07T10:36:22.376Z,1.45
2023-04-07T10:39:07.590Z,0.70
2023-04-07T10:41:38.204Z,0.80
2023-04-07T10:44:06.651Z,1.50
2023-04-07T10:46:46.574Z,1.27
2023-04-07T10:49:15.143Z,1.38
2023-04-07T10:51:43.677Z,1.10
2023-04-07T10:54:18.421Z,1.30
2023-04-07T10:57:03.975Z,0.85
2023-04-07T10:59:32.072Z,1.23
2023-04-07T11:02:31.305Z,1.55
2023-04-07T11:04:58.830Z,1.58
2023-04-07T11:07:46.594Z,1.23
2023-04-07T11:10:16.009Z,0.77
2023-04-07T11:12:43.927Z,1.40
2023-04-07T11:15:18.246Z,1.33
2023-04-07T11:17:45.507Z,2.25
2023-04-07T11:20:12.692Z,1.88
2023-04-07T11:22:40.040Z,1.15
2023-04-07T11:25:21.891Z,1.40
2023-04-07T11:27:49.422Z,1.17
2023-04-07T11:30:18.065Z,1.27
2023-04-07T11:32:49.187Z,1.25
2023-04-07T11:35:16.488Z,2.50
2023-04-07T11:37:43.790Z,5.90
2023-04-07T11:40:11.504Z,2.08
2023-04-07T11:42:40.022Z,1.33
2023-04-07T11:45:16.976Z,1.55
2023-04-07T11:47:43.850Z,0.80
2023-04-07T11:50:13.136Z,1.40
2023-04-07T11:52:50.740Z,0.82
2023-04-07T11:55:22.679Z,1.08
2023-04-07T11:57:51.653Z,1.10
2023-04-07T12:00:18.904Z,0.77
2023-04-07T12:02:46.810Z,1.35
2023-04-07T12:05:14.190Z,0.95
2023-04-07T12:07:41.993Z,1.27
2023-04-07T12:10:22.075Z,0.70
2023-04-07T12:12:49.894Z,0.50
2023-04-07T12:15:17.472Z,0.75
2023-04-07T12:17:46.740Z,1.00
2023-04-07T12:20:14.338Z,0.63
2023-04-07T12:22:42.056Z,0.85
2023-04-07T12:25:09.360Z,0.43
2023-04-07T12:27:43.456Z,1.70
2023-04-07T12:30:11.659Z,1.08
2023-04-07T12:32:39.024Z,1.30
2023-04-07T12:35:06.784Z,1.50
2023-04-07T12:37:33.988Z,1.10
2023-04-07T12:40:01.364Z,1.08
2023-04-07T12:42:28.608Z,1.48
2023-04-07T12:44:56.648Z,1.08
2023-04-07T12:47:24.039Z,0.88
2023-04-07T12:49:51.523Z,0.52
2023-04-07T12:52:18.754Z,1.30
2023-04-07T12:54:45.907Z,0.70
2023-04-07T12:57:13.083Z,0.98
2023-04-07T12:59:40.524Z,0.80
2023-04-07T13:02:08.691Z,1.05
2023-04-07T13:04:36.978Z,0.75
2023-04-07T13:07:04.353Z,0.43
2023-04-07T13:09:31.204Z,0.80
2023-04-07T13:11:58.539Z,0.68
2023-04-07T13:14:25.865Z,0.85
2023-04-07T13:16:53.307Z,0.20
2023-04-07T13:19:20.600Z,0.50
2023-04-07T13:21:48.476Z,0.68
2023-04-07T13:24:16.185Z,0.50
2023-04-07T13:26:43.406Z,0.50
2023-04-07T13:29:10.496Z,0.60
2023-04-07T13:31:37.715Z,0.90
2023-04-07T13:34:04.890Z,0.45
2023-04-07T13:36:32.102Z,0.70
2023-04-07T13:38:59.699Z,0.75
2023-04-07T13:41:27.014Z,0.50
2023-04-07T13:43:53.943Z,1.13
2023-04-07T13:46:28.484Z,0.93
2023-04-07T13:48:56.654Z,0.95
2023-04-07T13:51:23.448Z,0.68
2023-04-07T13:53:50.912Z,1.08
2023-04-07T13:56:17.827Z,0.93
2023-04-07T13:58:44.604Z,0.90
2023-04-07T14:01:11.842Z,0.73
2023-04-07T14:03:38.957Z,0.98
2023-04-07T14:06:05.878Z,0.80
2023-04-07T14:08:32.552Z,1.08
2023-04-07T14:10:59.332Z,0.75
2023-04-07T14:13:26.299Z,0.82
2023-04-07T14:15:53.853Z,1.95
2023-04-07T14:18:21.049Z,0.73
2023-04-07T14:20:49.096Z,2.08
2023-04-07T14:23:20.753Z,1.15
2023-04-07T14:25:57.433Z,0.60
2023-04-07T14:28:24.764Z,0.70
2023-04-07T14:30:51.651Z,0.95
2023-04-07T14:33:18.460Z,0.68
2023-04-07T14:35:45.607Z,0.90
2023-04-07T14:38:12.564Z,1.67
2023-04-07T14:40:39.758Z,1.05
2023-04-07T14:43:07.855Z,1.42
2023-04-07T14:45:35.623Z,0.73
2023-04-07T14:48:02.626Z,0.47
2023-04-07T14:50:32.582Z,1.08
2023-04-07T14:53:00.998Z,0.98
2023-04-07T14:55:27.976Z,1.23
2023-04-07T14:57:55.987Z,1.20
2023-04-07T15:00:25.178Z,1.15
2023-04-07T15:02:59.115Z,0.88
2023-04-07T15:05:27.959Z,1.17
2023-04-07T15:07:54.952Z,1.08
2023-04-07T15:10:21.950Z,1.17
2023-04-07T15:12:48.947Z,1.08
2023-04-07T15:15:16.540Z,1.65
2023-04-07T15:17:44.922Z,0.90
2023-04-07T15:20:13.586Z,1.23
2023-04-07T15:22:40.669Z,0.50
2023-04-07T15:25:08.432Z,0.63
2023-04-07T15:27:35.149Z,1.17
2023-04-07T15:30:02.078Z,1.42
2023-04-07T15:32:31.119Z,1.33
2023-04-07T15:34:58.082Z,0.77
2023-04-07T15:37:25.874Z,1.10
2023-04-07T15:39:52.838Z,0.93
2023-04-07T15:42:19.606Z,1.33
2023-04-07T15:44:46.485Z,0.98
2023-04-07T15:47:13.320Z,1.38
2023-04-07T15:49:41.275Z,0.77
2023-04-07T15:52:08.316Z,1.23
2023-04-07T15:54:35.230Z,0.90
2023-04-07T15:57:01.878Z,1.50
2023-04-07T15:59:30.755Z,1.30
2023-04-07T16:01:57.899Z,1.92
2023-04-07T16:04:24.792Z,1.25
2023-04-07T16:06:51.551Z,1.02
2023-04-07T16:09:18.259Z,1.27
2023-04-07T16:11:45.148Z,2.38
2023-04-07T16:14:11.904Z,0.82
2023-04-07T16:16:41.802Z,1.55
2023-04-07T16:19:08.995Z,1.27
2023-04-07T16:21:35.897Z,0.82
2023-04-07T16:24:02.739Z,1.13
2023-04-07T16:26:29.427Z,1.25
2023-04-07T16:28:56.153Z,1.10
2023-04-07T16:31:22.968Z,1.02
2023-04-07T16:33:52.703Z,1.20
2023-04-07T16:36:19.387Z,1.13
2023-04-07T16:38:46.219Z,1.17
2023-04-07T16:41:13.013Z,1.73
2023-04-07T16:43:40.829Z,0.95
2023-04-07T16:46:07.886Z,1.55
2023-04-07T16:48:34.792Z,0.82
2023-04-07T16:51:01.535Z,0.95
2023-04-07T16:53:28.334Z,1.17
2023-04-07T16:55:55.399Z,1.00
2023-04-07T16:58:22.312Z,1.75
2023-04-07T17:00:49.091Z,1.17
2023-04-07T17:03:16.276Z,1.50
2023-04-07T17:05:44.499Z,1.23
2023-04-07T17:08:11.605Z,0.70
2023-04-07T17:10:38.448Z,1.77
2023-04-07T17:13:05.420Z,1.33
2023-04-07T17:15:36.359Z,1.02
2023-04-07T17:18:03.364Z,1.80
2023-04-07T17:20:30.187Z,1.63
2023-04-07T17:22:57.004Z,2.85
2023-04-07T17:25:24.749Z,0.93
2023-04-07T17:27:51.526Z,1.00
2023-04-07T17:30:18.406Z,1.00
2023-04-07T17:32:45.310Z,1.13
2023-04-07T17:35:12.202Z,1.42
2023-04-07T17:37:39.068Z,1.40
2023-04-07T17:40:06.888Z,2.22
2023-04-07T17:42:33.613Z,1.25
2023-04-07T17:45:00.460Z,1.17
2023-04-07T17:47:27.248Z,1.45
2023-04-07T17:49:54.090Z,1.65
2023-04-07T17:52:21.410Z,1.10
2023-04-07T17:54:48.360Z,1.60
2023-04-07T17:57:15.812Z,1.10
2023-04-07T17:59:42.777Z,1.20
2023-04-07T18:02:10.360Z,1.40
2023-04-07T18:04:37.771Z,2.15
2023-04-07T18:07:04.854Z,2.35
2023-04-07T18:09:32.369Z,1.33
2023-04-07T18:11:59.244Z,1.70
2023-04-07T18:14:26.323Z,1.30
2023-04-07T18:16:54.594Z,2.45
2023-04-07T18:19:22.934Z,0.98
2023-04-07T18:21:52.397Z,1.70
2023-04-07T18:24:20.679Z,1.38
2023-04-07T18:26:47.754Z,1.40
2023-04-07T18:29:14.852Z,1.73
2023-04-07T18:31:44.766Z,1.73
2023-04-07T18:34:12.321Z,1.73
2023-04-07T18:36:42.953Z,1.38
2023-04-07T18:39:10.782Z,2.72
2023-04-07T18:41:37.535Z,2.10
2023-04-07T18:44:04.321Z,1.88
2023-04-07T18:46:31.123Z,2.20
2023-04-07T18:48:58.142Z,2.15
2023-04-07T18:51:24.849Z,1.50
2023-04-07T18:53:51.739Z,2.17
2023-04-07T18:56:20.378Z,2.67
2023-04-07T18:58:47.323Z,2.50
2023-04-07T19:01:14.581Z,3.00
2023-04-07T19:03:41.756Z,3.83
2023-04-07T19:06:09.179Z,1.75
2023-04-07T19:08:36.775Z,2.30
2023-04-07T19:11:04.230Z,2.90
2023-04-07T19:13:31.100Z,2.10
2023-04-07T19:15:58.032Z,1.75
2023-04-07T19:18:25.446Z,2.00
2023-04-07T19:20:52.378Z,1.98
2023-04-07T19:23:19.160Z,2.10
2023-04-07T19:25:46.151Z,2.53
2023-04-07T19:28:14.057Z,2.20
2023-04-07T19:30:40.872Z,1.95
2023-04-07T19:33:07.755Z,1.73
2023-04-07T19:35:35.679Z,1.98
2023-04-07T19:38:02.581Z,2.53
2023-04-07T19:40:31.239Z,3.15
2023-04-07T19:42:57.993Z,3.00
2023-04-07T19:45:24.866Z,3.30
2023-04-07T19:47:52.360Z,2.25
2023-04-07T19:50:19.791Z,2.35
2023-04-07T19:52:47.338Z,2.53
2023-04-07T19:55:14.514Z,3.17
2023-04-07T19:57:41.448Z,2.65
2023-04-07T20:00:09.087Z,2.45
2023-04-07T20:02:37.204Z,2.92
2023-04-07T20:05:04.676Z,2.42
2023-04-07T20:07:32.808Z,2.72
2023-04-07T20:09:59.931Z,3.15
2023-04-07T20:12:26.698Z,2.58
2023-04-07T20:14:53.451Z,2.70
2023-04-07T20:17:20.362Z,2.40
2023-04-07T20:19:47.867Z,3.30
2023-04-07T20:22:14.746Z,4.60
2023-04-07T20:24:41.502Z,2.60
2023-04-07T20:27:08.393Z,2.65
2023-04-07T20:29:35.885Z,2.22
2023-04-07T20:32:03.173Z,2.65
2023-04-07T20:34:29.907Z,2.70
2023-04-07T20:36:56.550Z,2.30
2023-04-07T20:39:23.531Z,1.95
2023-04-07T20:41:50.632Z,3.33
2023-04-07T20:44:18.254Z,2.80
2023-04-07T20:46:46.720Z,2.88
2023-04-07T20:49:13.631Z,2.33
2023-04-07T20:51:40.763Z,2.67
2023-04-07T20:54:07.783Z,1.65
2023-04-07T20:56:34.816Z,3.33
2023-04-07T20:59:01.662Z,2.40
2023-04-07T21:01:28.580Z,2.03
2023-04-07T21:03:55.493Z,1.90
2023-04-07T21:06:22.296Z,2.17
2023-04-07T21:08:49.216Z,2.38
2023-04-07T21:11:16.387Z,2.85
2023-04-07T21:13:43.171Z,2.05
2023-04-07T21:16:10.785Z,2.63
2023-04-07T21:18:37.620Z,1.45
2023-04-07T21:21:04.454Z,1.85
2023-04-07T21:23:31.822Z,2.72
2023-04-07T21:26:02.862Z,2.25
2023-04-07T21:28:29.571Z,2.85
2023-04-07T21:30:56.733Z,3.10
2023-04-07T21:33:24.401Z,1.98
2023-04-07T21:35:51.946Z,2.80
2023-04-07T21:38:18.927Z,2.00
2023-04-07T21:40:45.647Z,2.58
2023-04-07T21:43:12.440Z,2.83
2023-04-07T21:45:39.861Z,2.53
2023-04-07T21:48:06.885Z,2.88
2023-04-07T21:50:34.455Z,2.78
2023-04-07T21:53:01.348Z,2.20
2023-04-07T21:55:28.101Z,3.42
2023-04-07T21:57:55.078Z,2.38
2023-04-07T22:00:22.283Z,2.38
2023-04-07T22:02:49.667Z,2.72
2023-04-07T22:05:17.001Z,2.88
2023-04-07T22:07:45.506Z,3.40
2023-04-07T22:10:12.797Z,2.58
2023-04-07T22:12:39.828Z,2.90
2023-04-07T22:15:07.628Z,2.30
2023-04-07T22:17:34.858Z,2.78
2023-04-07T22:20:01.788Z,3.25
2023-04-07T22:22:29.025Z,3.72
2023-04-07T22:24:55.982Z,3.67
2023-04-07T22:27:22.739Z,2.85
2023-04-07T22:29:49.553Z,3.47
2023-04-07T22:32:16.357Z,3.28
2023-04-07T22:34:44.845Z,3.10
2023-04-07T22:37:11.712Z,3.80
2023-04-07T22:39:38.506Z,3.47
2023-04-07T22:42:05.821Z,4.43
2023-04-07T22:44:32.571Z,3.40
2023-04-07T22:46:59.358Z,2.65
2023-04-07T22:49:26.274Z,3.33
2023-04-07T22:51:55.195Z,2.72
2023-04-07T22:54:21.982Z,3.85
2023-04-07T22:56:48.697Z,3.28
2023-04-07T22:59:15.465Z,4.32
2023-04-07T23:01:42.429Z,3.20
2023-04-07T23:04:09.275Z,3.60
2023-04-07T23:06:36.143Z,4.80
2023-04-07T23:09:02.972Z,3.75
2023-04-07T23:11:29.754Z,3.33
2023-04-07T23:13:56.811Z,3.00
2023-04-07T23:16:23.637Z,3.25
2023-04-07T23:18:50.533Z,2.92
2023-04-07T23:21:17.385Z,3.97
2023-04-07T23:23:44.228Z,3.42
2023-04-07T23:26:10.996Z,3.75
2023-04-07T23:28:38.058Z,4.97
2023-04-07T23:31:06.549Z,4.32
2023-04-07T23:33:33.466Z,3.55
2023-04-07T23:36:00.612Z,3.55
2023-04-07T23:38:27.448Z,3.58
2023-04-07T23:40:54.270Z,3.60
2023-04-07T23:43:21.006Z,4.10
2023-04-07T23:45:50.649Z,3.75
2023-04-07T23:48:17.579Z,3.58
2023-04-07T23:50:44.301Z,3.10
2023-04-07T23:53:11.005Z,3.13
2023-04-07T23:55:37.772Z,3.35
2023-04-07T23:58:04.494Z,3.92
